Flight Track Log - Related Links

Times and Time Zones

All times are in EDT time to prevent confusion due to time zone crossing. See the DAL3895 flight status page for this flight to view local times or setup timezone preferences in your user account.


Time Position Orientation Groundspeed Altitude Reporting Facility
EDT Latitude Longitude Course Direction KTS MPH feet Rate Location/Type
Mon 12:03:26 PM 40.2186 -76.9092 229° Southwest 197 227 5,000  Level New York Center
Mon 12:04:26 PM 40.1417 -76.9431 199° South 182 209 7,300 2,700 Climbing New York Center
Mon 12:05:26 PM 40.0619 -76.8764 147° Southeast 231 266 10,400 2,200 Climbing New York Center
Mon 12:06:26 PM 39.9842 -76.8044 145° Southeast 317 365 11,700 1,250 Climbing New York Center
Mon 12:07:00 PM 39.6102 -76.7930 229° Southwest  Level FlightAware Approximate
Mon 12:07:26 PM 39.8986 -76.7267 145° Southeast 364 419 12,900  Level New York Center
Mon 12:08:26 PM 39.8000 -76.6561 151° Southeast 400 460 14,500 1,500 Climbing New York Center
Mon 12:09:26 PM 39.6958 -76.6906 194° South 379 436 15,900 1,299 Climbing New York Center
Mon 12:10:40 PM 39.6094 -76.8144 228° Southwest 373 429 17,400 1,289 Climbing Washington Center
Mon 12:11:41 PM 39.5333 -76.9233 228° Southwest 389 448 18,800 1,322 Climbing Washington Center
Mon 12:12:38 PM 39.4489 -77.0294 224° Southwest 408 470 20,000 1,109 Climbing Washington Center
Mon 12:13:40 PM 39.3558 -77.1269 219° Southwest 421 484 21,000 976 Climbing Washington Center
Mon 12:14:41 PM 39.2608 -77.2242 218° Southwest 441 507 22,000 992 Climbing Washington Center
Mon 12:15:41 PM 39.1678 -77.3211 219° Southwest 441 507 23,000 1,017 Climbing Washington Center
Mon 12:16:39 PM 39.0725 -77.4203 219° Southwest 441 507 24,000 1,017 Climbing Washington Center
Mon 12:17:39 PM 38.9792 -77.5169 219° Southwest 441 507 25,000 843 Climbing Washington Center
Mon 12:18:40 PM 38.8881 -77.6131 219° Southwest 436 502 25,700 496 Climbing Washington Center
Mon 12:19:40 PM 38.7778 -77.7219 218° Southwest 443 510 26,000 347 Climbing Washington Center
Mon 12:20:41 PM 38.6842 -77.8203 219° Southwest 449 517 26,400 450 Climbing Washington Center
Mon 12:21:40 PM 38.6008 -77.9294 226° Southwest 442 509 26,900 504 Climbing Washington Center
Mon 12:22:40 PM 38.5297 -78.0519 233° Southwest 436 502 27,400 496 Climbing Washington Center
Mon 12:23:41 PM 38.4606 -78.1717 234° Southwest 431 496 27,900 298 Climbing Washington Center
Mon 12:24:41 PM 38.3889 -78.2936 233° Southwest 431 496 28,000 51 Climbing Washington Center
Mon 12:25:38 PM 38.3153 -78.4153 232° Southwest 431 496 28,000  Level Washington Center
Mon 12:26:40 PM 38.2564 -78.5164 233° Southwest 436 502 28,000  Level Washington Center
Mon 12:27:40 PM 38.1714 -78.6661 234° Southwest 441 507 28,000  Level Washington Center
Mon 12:28:41 PM 38.0972 -78.7897 233° Southwest 447 514 28,000  Level Washington Center
Mon 12:29:39 PM 38.0231 -78.9131 233° Southwest 447 514 28,000  Level Washington Center
Mon 12:30:40 PM 37.9553 -79.0233 232° Southwest 447 514 28,000  Level Washington Center
Mon 12:31:40 PM 37.8789 -79.1436 231° Southwest 447 514 28,000  Level Washington Center
Mon 12:32:41 PM 37.7961 -79.2606 228° Southwest 447 514 28,000  Level Washington Center
Mon 12:33:39 PM 37.7025 -79.3847 226° Southwest 447 514 28,000  Level Washington Center
Mon 12:34:40 PM 37.6283 -79.4858 227° Southwest 447 514 28,000  Level Washington Center
Mon 12:35:41 PM 37.5364 -79.6119 227° Southwest 452 520 28,000  Level Washington Center
Mon 12:36:39 PM 37.4619 -79.7153 228° Southwest 452 520 28,000  Level Washington Center
Mon 12:37:40 PM 37.3764 -79.8361 228° Southwest 457 526 28,000  Level Washington Center
Mon 12:39:25 PM 37.2272 -80.0328 226° Southwest 435 501 28,000  Level Atlanta Center
Mon 12:40:25 PM 37.1353 -80.1544 227° Southwest 435 501 28,000  Level Atlanta Center
Mon 12:41:25 PM 37.0533 -80.2653 227° Southwest 435 501 28,000  Level Atlanta Center
Mon 12:42:25 PM 36.9672 -80.3783 226° Southwest 437 503 28,000  Level Atlanta Center
Mon 12:43:25 PM 36.8850 -80.4886 227° Southwest 437 503 28,000  Level Atlanta Center
Mon 12:44:25 PM 36.8086 -80.5906 227° Southwest 437 503 28,000  Level Atlanta Center
Mon 12:45:25 PM 36.7222 -80.7083 228° Southwest 432 497 28,000  Level Atlanta Center
Mon 12:46:25 PM 36.6397 -80.8203 227° Southwest 432 497 28,000  Level Atlanta Center
Mon 12:47:25 PM 36.5569 -80.9297 227° Southwest 432 497 28,000  Level Atlanta Center
Mon 12:48:25 PM 36.4742 -81.0386 227° Southwest 432 497 28,000  Level Atlanta Center
Mon 12:49:25 PM 36.3933 -81.1475 227° Southwest 432 497 28,000  Level Atlanta Center
Mon 12:50:25 PM 36.3083 -81.2589 227° Southwest 432 497 28,000  Level Atlanta Center
Mon 12:51:25 PM 36.2253 -81.3672 226° Southwest 432 497 28,000  Level Atlanta Center
Mon 12:52:25 PM 36.1503 -81.4647 226° Southwest 440 506 28,000  Level Atlanta Center
Mon 12:53:25 PM 36.0669 -81.5753 227° Southwest 434 499 28,000  Level Atlanta Center
Mon 12:54:25 PM 35.9833 -81.6806 226° Southwest 434 499 28,000  Level Atlanta Center
Mon 12:55:25 PM 35.9000 -81.7906 227° Southwest 434 499 28,000  Level Atlanta Center
Mon 12:56:25 PM 35.8183 -81.8953 226° Southwest 434 499 28,000  Level Atlanta Center
Mon 12:57:25 PM 35.7328 -82.0050 226° Southwest 434 499 28,000  Level Atlanta Center
Mon 12:58:25 PM 35.6447 -82.1067 223° Southwest 434 499 28,000  Level Atlanta Center
Mon 12:59:25 PM 35.5564 -82.2083 223° Southwest 434 499 28,000 -300 Level Atlanta Center
Mon 01:00:25 PM 35.4683 -82.3097 223° Southwest 439 505 27,400 -1,150 Descending Atlanta Center
Mon 01:01:25 PM 35.3819 -82.4111 224° Southwest 439 505 25,700 -1,650 Descending Atlanta Center
Mon 01:02:25 PM 35.2936 -82.5069 222° Southwest 439 505 24,100 -850 Descending Atlanta Center
Mon 01:03:25 PM 35.2050 -82.6050 222° Southwest 425 489 24,000 -50 Descending Atlanta Center
Mon 01:04:25 PM 35.1183 -82.7031 223° Southwest 420 483 24,000  Level Atlanta Center
Mon 01:05:25 PM 35.0319 -82.8008 223° Southwest 414 476 24,000  Level Atlanta Center
Mon 01:06:25 PM 34.9556 -82.8856 222° Southwest 414 476 24,000  Level Atlanta Center
Mon 01:07:25 PM 34.8667 -82.9756 220° Southwest 414 476 24,000 -350 Level Atlanta Center
Mon 01:08:25 PM 34.7839 -83.0700 223° Southwest 414 476 23,300 -1,150 Descending Atlanta Center
Mon 01:09:25 PM 34.6947 -83.1672 222° Southwest 414 476 21,700 -1,600 Descending Atlanta Center
Mon 01:10:25 PM 34.6119 -83.2664 225° Southwest 419 482 20,100 -1,550 Descending Atlanta Center
Mon 01:11:25 PM 34.5250 -83.3581 221° Southwest 419 482 18,600 -1,400 Descending Atlanta Center
Mon 01:12:25 PM 34.4439 -83.4469 222° Southwest 406 467 17,300 -1,400 Descending Atlanta Center
Mon 01:13:25 PM 34.3567 -83.5431 222° Southwest 396 456 15,800 -1,550 Descending Atlanta Center
Mon 01:14:25 PM 34.2819 -83.6289 224° Southwest 382 440 14,200 -1,350 Descending Atlanta Center
Mon 01:15:25 PM 34.2092 -83.7072 222° Southwest 363 418 13,100 -1,050 Descending Atlanta Center
Mon 01:16:25 PM 34.1489 -83.7753 223° Southwest 325 374 12,100 -550 Descending Atlanta Center
Mon 01:17:25 PM 34.0906 -83.8381 222° Southwest 297 342 12,000 -508 Descending Atlanta Center
Mon 01:18:35 PM 34.0167 -83.9167 221° Southwest 313 360 11,000 -912 Descending Atlanta TRACON
Mon 01:19:30 PM 33.9667 -83.9667 220° Southwest 284 327 10,100 -950 Descending Atlanta TRACON
Mon 01:20:35 PM 33.8667 -83.9667 180° South 305 351 9,100 -783 Descending Atlanta TRACON
Mon 01:21:25 PM 33.8108 -83.9614 176° South 299 344 8,600 -709 Descending Atlanta Center
Mon 01:22:25 PM 33.7294 -83.9689 184° South 299 344 7,800 -750 Descending Atlanta Center
Mon 01:23:25 PM 33.6544 -83.9989 198° South 291 335 7,100 -950 Descending Atlanta Center
Mon 01:24:25 PM 33.6314 -84.0761 250° West 240 276 5,900 -962 Descending Atlanta Center
Mon 01:25:36 PM 33.6333 -84.1667 272° West 222 255 5,000 -960 Descending Atlanta TRACON
Mon 01:26:30 PM 33.6333 -84.2333 270° West 219 252 3,900 -1,053 Descending Atlanta TRACON
Mon 01:27:30 PM 33.6333 -84.3000 270° West 187 215 3,000 -950 Descending Atlanta TRACON
Mon 01:28:30 PM 33.6333 -84.3667 270° West 164 189 2,000 -895 Descending Atlanta TRACON
Mon 01:29:24 PM 33.6333 -84.4000 270° West 156 180 1,300 -778 Descending Atlanta TRACON
Mon 01:31:00 PM 33.6333 -84.4167 270° West  Level FlightAware Approximate
Mon 01:38:00 PM 33.6367 -84.4279 270° West  Level Estimated

Login

Don't have an account? Register now (free) for customized features, flight alerts, and more!